sensor_id;sensor_type;location;lat;lon;timestamp;P1;durP1;ratioP1;P2;durP2;ratioP2
16854;SDS011;8543;54.522;18.550;2024-02-26T00:01:39;7.40;;;4.00;;
16854;SDS011;8543;54.522;18.550;2024-02-26T00:04:04;6.40;;;4.10;;
16854;SDS011;8543;54.522;18.550;2024-02-26T00:06:30;7.80;;;4.10;;
16854;SDS011;8543;54.522;18.550;2024-02-26T00:08:56;6.90;;;3.90;;
16854;SDS011;8543;54.522;18.550;2024-02-26T00:11:21;6.30;;;3.90;;
16854;SDS011;8543;54.522;18.550;2024-02-26T00:13:47;6.40;;;4.00;;
16854;SDS011;8543;54.522;18.550;2024-02-26T00:16:12;6.30;;;3.80;;
16854;SDS011;8543;54.522;18.550;2024-02-26T00:18:37;7.10;;;3.60;;
16854;SDS011;8543;54.522;18.550;2024-02-26T00:21:03;6.60;;;4.10;;
16854;SDS011;8543;54.522;18.550;2024-02-26T00:23:29;5.90;;;3.80;;
16854;SDS011;8543;54.522;18.550;2024-02-26T00:25:54;6.50;;;4.40;;
16854;SDS011;8543;54.522;18.550;2024-02-26T00:28:20;6.70;;;4.20;;
16854;SDS011;8543;54.522;18.550;2024-02-26T00:30:46;7.40;;;4.60;;
16854;SDS011;8543;54.522;18.550;2024-02-26T00:33:12;7.70;;;5.40;;
16854;SDS011;8543;54.522;18.550;2024-02-26T00:35:38;7.90;;;5.40;;
16854;SDS011;8543;54.522;18.550;2024-02-26T00:38:03;7.00;;;4.80;;
16854;SDS011;8543;54.522;18.550;2024-02-26T00:40:29;8.40;;;5.20;;
16854;SDS011;8543;54.522;18.550;2024-02-26T00:42:54;8.20;;;5.50;;
16854;SDS011;8543;54.522;18.550;2024-02-26T00:45:20;7.80;;;5.20;;
16854;SDS011;8543;54.522;18.550;2024-02-26T00:47:45;8.50;;;5.40;;
16854;SDS011;8543;54.522;18.550;2024-02-26T00:50:12;9.00;;;5.50;;
16854;SDS011;8543;54.522;18.550;2024-02-26T00:52:38;8.80;;;5.70;;
16854;SDS011;8543;54.522;18.550;2024-02-26T00:55:03;9.40;;;6.60;;
16854;SDS011;8543;54.522;18.550;2024-02-26T00:57:29;10.30;;;6.20;;
16854;SDS011;8543;54.522;18.550;2024-02-26T00:59:55;8.40;;;6.30;;
16854;SDS011;8543;54.522;18.550;2024-02-26T01:02:21;8.10;;;5.30;;
16854;SDS011;8543;54.522;18.550;2024-02-26T01:04:47;7.70;;;4.80;;
16854;SDS011;8543;54.522;18.550;2024-02-26T01:07:13;9.80;;;5.40;;
16854;SDS011;8543;54.522;18.550;2024-02-26T01:09:38;9.80;;;5.60;;
16854;SDS011;8543;54.522;18.550;2024-02-26T01:12:04;9.90;;;6.10;;
16854;SDS011;8543;54.522;18.550;2024-02-26T01:14:29;10.30;;;6.80;;
16854;SDS011;8543;54.522;18.550;2024-02-26T01:16:54;12.40;;;7.20;;
16854;SDS011;8543;54.522;18.550;2024-02-26T01:19:20;11.00;;;7.30;;
16854;SDS011;8543;54.522;18.550;2024-02-26T01:21:46;11.60;;;6.90;;
16854;SDS011;8543;54.522;18.550;2024-02-26T01:24:11;12.60;;;6.90;;
16854;SDS011;8543;54.522;18.550;2024-02-26T01:26:37;10.40;;;5.90;;
16854;SDS011;8543;54.522;18.550;2024-02-26T01:29:03;9.40;;;5.40;;
16854;SDS011;8543;54.522;18.550;2024-02-26T01:31:28;11.50;;;6.60;;
16854;SDS011;8543;54.522;18.550;2024-02-26T01:33:54;10.70;;;6.30;;
16854;SDS011;8543;54.522;18.550;2024-02-26T01:36:19;10.00;;;6.00;;
16854;SDS011;8543;54.522;18.550;2024-02-26T01:38:45;9.60;;;6.40;;
16854;SDS011;8543;54.522;18.550;2024-02-26T01:41:10;10.70;;;6.40;;
16854;SDS011;8543;54.522;18.550;2024-02-26T01:43:36;9.00;;;5.70;;
16854;SDS011;8543;54.522;18.550;2024-02-26T01:46:01;10.20;;;5.50;;
16854;SDS011;8543;54.522;18.550;2024-02-26T01:48:27;9.20;;;6.00;;
16854;SDS011;8543;54.522;18.550;2024-02-26T01:50:53;11.40;;;5.90;;
16854;SDS011;8543;54.522;18.550;2024-02-26T01:53:18;10.40;;;6.20;;
16854;SDS011;8543;54.522;18.550;2024-02-26T01:55:44;11.20;;;6.60;;
16854;SDS011;8543;54.522;18.550;2024-02-26T01:58:09;10.40;;;6.50;;
16854;SDS011;8543;54.522;18.550;2024-02-26T02:00:35;10.90;;;6.20;;
16854;SDS011;8543;54.522;18.550;2024-02-26T02:03:01;10.30;;;6.40;;
16854;SDS011;8543;54.522;18.550;2024-02-26T02:05:28;9.00;;;6.00;;
16854;SDS011;8543;54.522;18.550;2024-02-26T02:07:54;9.40;;;5.90;;
16854;SDS011;8543;54.522;18.550;2024-02-26T02:10:19;9.80;;;5.70;;
16854;SDS011;8543;54.522;18.550;2024-02-26T02:12:48;11.20;;;6.40;;
16854;SDS011;8543;54.522;18.550;2024-02-26T02:15:13;9.60;;;6.10;;
16854;SDS011;8543;54.522;18.550;2024-02-26T02:17:39;9.30;;;6.10;;
16854;SDS011;8543;54.522;18.550;2024-02-26T02:20:07;10.90;;;6.50;;
16854;SDS011;8543;54.522;18.550;2024-02-26T02:22:34;11.60;;;6.80;;
16854;SDS011;8543;54.522;18.550;2024-02-26T02:24:59;9.50;;;5.80;;
16854;SDS011;8543;54.522;18.550;2024-02-26T02:27:25;10.50;;;6.30;;
16854;SDS011;8543;54.522;18.550;2024-02-26T02:29:51;9.90;;;5.80;;
16854;SDS011;8543;54.522;18.550;2024-02-26T02:32:17;10.30;;;6.10;;
16854;SDS011;8543;54.522;18.550;2024-02-26T02:34:43;9.30;;;5.70;;
16854;SDS011;8543;54.522;18.550;2024-02-26T02:37:08;9.30;;;5.60;;
16854;SDS011;8543;54.522;18.550;2024-02-26T02:39:34;7.60;;;5.90;;
16854;SDS011;8543;54.522;18.550;2024-02-26T02:41:59;8.90;;;5.40;;
16854;SDS011;8543;54.522;18.550;2024-02-26T02:44:25;9.40;;;5.20;;
16854;SDS011;8543;54.522;18.550;2024-02-26T02:46:50;8.90;;;5.40;;
16854;SDS011;8543;54.522;18.550;2024-02-26T02:49:18;9.40;;;6.10;;
16854;SDS011;8543;54.522;18.550;2024-02-26T02:51:44;11.70;;;6.80;;
16854;SDS011;8543;54.522;18.550;2024-02-26T02:54:09;11.40;;;5.90;;
16854;SDS011;8543;54.522;18.550;2024-02-26T02:56:34;10.10;;;6.40;;
16854;SDS011;8543;54.522;18.550;2024-02-26T02:59:00;12.40;;;6.60;;
16854;SDS011;8543;54.522;18.550;2024-02-26T03:01:27;9.80;;;6.20;;
16854;SDS011;8543;54.522;18.550;2024-02-26T03:03:52;10.50;;;6.00;;
16854;SDS011;8543;54.522;18.550;2024-02-26T03:06:17;12.80;;;6.60;;
16854;SDS011;8543;54.522;18.550;2024-02-26T03:08:43;11.60;;;7.20;;
16854;SDS011;8543;54.522;18.550;2024-02-26T03:11:12;9.80;;;6.90;;
16854;SDS011;8543;54.522;18.550;2024-02-26T03:13:39;12.40;;;7.20;;
16854;SDS011;8543;54.522;18.550;2024-02-26T03:16:05;10.30;;;7.30;;
16854;SDS011;8543;54.522;18.550;2024-02-26T03:18:30;11.10;;;6.50;;
16854;SDS011;8543;54.522;18.550;2024-02-26T03:20:56;10.50;;;6.50;;
16854;SDS011;8543;54.522;18.550;2024-02-26T03:23:21;9.60;;;6.70;;
16854;SDS011;8543;54.522;18.550;2024-02-26T03:25:47;12.30;;;7.10;;
16854;SDS011;8543;54.522;18.550;2024-02-26T03:28:13;11.70;;;7.00;;
16854;SDS011;8543;54.522;18.550;2024-02-26T03:30:38;12.10;;;7.50;;
16854;SDS011;8543;54.522;18.550;2024-02-26T03:33:04;12.40;;;7.00;;
16854;SDS011;8543;54.522;18.550;2024-02-26T03:35:29;10.70;;;7.20;;
16854;SDS011;8543;54.522;18.550;2024-02-26T03:37:55;11.00;;;7.00;;
16854;SDS011;8543;54.522;18.550;2024-02-26T03:40:20;12.60;;;8.10;;
16854;SDS011;8543;54.522;18.550;2024-02-26T03:42:45;12.80;;;7.90;;
16854;SDS011;8543;54.522;18.550;2024-02-26T03:45:11;12.70;;;7.40;;
16854;SDS011;8543;54.522;18.550;2024-02-26T03:47:39;9.90;;;7.30;;
16854;SDS011;8543;54.522;18.550;2024-02-26T03:50:05;11.10;;;7.30;;
16854;SDS011;8543;54.522;18.550;2024-02-26T03:52:31;10.80;;;7.30;;
16854;SDS011;8543;54.522;18.550;2024-02-26T03:54:57;12.10;;;7.50;;
16854;SDS011;8543;54.522;18.550;2024-02-26T03:57:23;12.40;;;7.50;;
16854;SDS011;8543;54.522;18.550;2024-02-26T03:59:48;12.10;;;7.70;;
16854;SDS011;8543;54.522;18.550;2024-02-26T04:02:13;11.20;;;7.80;;
16854;SDS011;8543;54.522;18.550;2024-02-26T04:04:39;10.90;;;7.50;;
16854;SDS011;8543;54.522;18.550;2024-02-26T04:07:04;11.30;;;7.30;;
16854;SDS011;8543;54.522;18.550;2024-02-26T04:09:33;12.70;;;7.40;;
16854;SDS011;8543;54.522;18.550;2024-02-26T04:11:58;10.60;;;7.40;;
16854;SDS011;8543;54.522;18.550;2024-02-26T04:14:24;9.50;;;6.50;;
16854;SDS011;8543;54.522;18.550;2024-02-26T04:16:49;11.70;;;7.50;;
16854;SDS011;8543;54.522;18.550;2024-02-26T04:19:17;11.20;;;7.30;;
16854;SDS011;8543;54.522;18.550;2024-02-26T04:21:43;11.30;;;7.50;;
16854;SDS011;8543;54.522;18.550;2024-02-26T04:24:08;12.90;;;7.60;;
16854;SDS011;8543;54.522;18.550;2024-02-26T04:26:34;12.40;;;8.40;;
16854;SDS011;8543;54.522;18.550;2024-02-26T04:28:59;14.20;;;7.60;;
16854;SDS011;8543;54.522;18.550;2024-02-26T04:31:25;12.20;;;8.00;;
16854;SDS011;8543;54.522;18.550;2024-02-26T04:33:51;12.20;;;7.70;;
16854;SDS011;8543;54.522;18.550;2024-02-26T04:36:17;12.20;;;8.20;;
16854;SDS011;8543;54.522;18.550;2024-02-26T04:38:43;12.10;;;8.60;;
16854;SDS011;8543;54.522;18.550;2024-02-26T04:41:08;14.80;;;9.50;;
16854;SDS011;8543;54.522;18.550;2024-02-26T04:43:34;15.40;;;9.90;;
16854;SDS011;8543;54.522;18.550;2024-02-26T04:45:59;14.90;;;9.90;;
16854;SDS011;8543;54.522;18.550;2024-02-26T04:48:27;15.50;;;9.80;;
16854;SDS011;8543;54.522;18.550;2024-02-26T04:50:52;13.00;;;8.70;;
16854;SDS011;8543;54.522;18.550;2024-02-26T04:53:18;13.50;;;8.60;;
16854;SDS011;8543;54.522;18.550;2024-02-26T04:55:43;15.30;;;9.20;;
16854;SDS011;8543;54.522;18.550;2024-02-26T04:58:09;13.40;;;8.30;;
16854;SDS011;8543;54.522;18.550;2024-02-26T05:00:35;13.50;;;8.50;;
16854;SDS011;8543;54.522;18.550;2024-02-26T05:03:00;13.70;;;8.90;;
16854;SDS011;8543;54.522;18.550;2024-02-26T05:05:26;12.80;;;8.70;;
16854;SDS011;8543;54.522;18.550;2024-02-26T05:07:51;15.80;;;8.50;;
16854;SDS011;8543;54.522;18.550;2024-02-26T05:10:17;15.40;;;9.40;;
16854;SDS011;8543;54.522;18.550;2024-02-26T05:12:42;15.60;;;9.90;;
16854;SDS011;8543;54.522;18.550;2024-02-26T05:15:08;12.80;;;9.00;;
16854;SDS011;8543;54.522;18.550;2024-02-26T05:17:34;13.30;;;9.40;;
16854;SDS011;8543;54.522;18.550;2024-02-26T05:20:00;12.70;;;8.20;;
16854;SDS011;8543;54.522;18.550;2024-02-26T05:22:25;14.20;;;8.80;;
16854;SDS011;8543;54.522;18.550;2024-02-26T05:24:51;13.80;;;8.30;;
16854;SDS011;8543;54.522;18.550;2024-02-26T05:27:16;14.70;;;9.10;;
16854;SDS011;8543;54.522;18.550;2024-02-26T05:29:42;13.60;;;8.50;;
16854;SDS011;8543;54.522;18.550;2024-02-26T05:32:07;14.50;;;9.40;;
16854;SDS011;8543;54.522;18.550;2024-02-26T05:34:32;16.70;;;10.70;;
16854;SDS011;8543;54.522;18.550;2024-02-26T05:36:58;16.70;;;10.30;;
16854;SDS011;8543;54.522;18.550;2024-02-26T05:39:23;12.50;;;8.40;;
16854;SDS011;8543;54.522;18.550;2024-02-26T05:41:49;13.30;;;8.40;;
16854;SDS011;8543;54.522;18.550;2024-02-26T05:44:14;12.10;;;8.90;;
16854;SDS011;8543;54.522;18.550;2024-02-26T05:46:41;15.90;;;10.10;;
16854;SDS011;8543;54.522;18.550;2024-02-26T05:49:07;15.60;;;9.70;;
16854;SDS011;8543;54.522;18.550;2024-02-26T05:51:32;14.40;;;8.90;;
16854;SDS011;8543;54.522;18.550;2024-02-26T05:53:58;17.90;;;9.90;;
16854;SDS011;8543;54.522;18.550;2024-02-26T05:56:23;16.40;;;10.70;;
16854;SDS011;8543;54.522;18.550;2024-02-26T05:58:49;14.70;;;9.00;;
16854;SDS011;8543;54.522;18.550;2024-02-26T06:01:15;18.30;;;11.90;;
16854;SDS011;8543;54.522;18.550;2024-02-26T06:03:42;16.40;;;11.60;;
16854;SDS011;8543;54.522;18.550;2024-02-26T06:06:07;17.20;;;11.10;;
16854;SDS011;8543;54.522;18.550;2024-02-26T06:08:32;17.20;;;11.20;;
16854;SDS011;8543;54.522;18.550;2024-02-26T06:10:58;17.30;;;12.20;;
16854;SDS011;8543;54.522;18.550;2024-02-26T06:13:24;18.60;;;12.10;;
16854;SDS011;8543;54.522;18.550;2024-02-26T06:15:49;15.40;;;10.70;;
16854;SDS011;8543;54.522;18.550;2024-02-26T06:18:15;16.80;;;10.40;;
16854;SDS011;8543;54.522;18.550;2024-02-26T06:20:41;15.40;;;9.40;;
16854;SDS011;8543;54.522;18.550;2024-02-26T06:23:06;15.20;;;10.20;;
16854;SDS011;8543;54.522;18.550;2024-02-26T06:25:32;14.00;;;9.80;;
16854;SDS011;8543;54.522;18.550;2024-02-26T06:27:57;13.80;;;10.00;;
16854;SDS011;8543;54.522;18.550;2024-02-26T06:30:23;13.80;;;9.80;;
16854;SDS011;8543;54.522;18.550;2024-02-26T06:32:48;12.00;;;9.20;;
16854;SDS011;8543;54.522;18.550;2024-02-26T06:35:13;12.00;;;9.20;;
16854;SDS011;8543;54.522;18.550;2024-02-26T06:37:39;13.70;;;9.80;;
16854;SDS011;8543;54.522;18.550;2024-02-26T06:40:05;12.40;;;9.90;;
16854;SDS011;8543;54.522;18.550;2024-02-26T06:42:33;10.80;;;8.90;;
16854;SDS011;8543;54.522;18.550;2024-02-26T06:44:59;12.10;;;9.00;;
16854;SDS011;8543;54.522;18.550;2024-02-26T06:47:24;11.50;;;9.00;;
16854;SDS011;8543;54.522;18.550;2024-02-26T06:49:51;14.00;;;10.40;;
16854;SDS011;8543;54.522;18.550;2024-02-26T06:52:16;11.20;;;9.10;;
16854;SDS011;8543;54.522;18.550;2024-02-26T06:54:41;11.20;;;10.00;;
16854;SDS011;8543;54.522;18.550;2024-02-26T06:57:07;12.30;;;9.50;;
16854;SDS011;8543;54.522;18.550;2024-02-26T06:59:32;12.20;;;10.10;;
16854;SDS011;8543;54.522;18.550;2024-02-26T07:01:58;11.40;;;10.20;;
16854;SDS011;8543;54.522;18.550;2024-02-26T07:04:23;11.20;;;10.10;;
16854;SDS011;8543;54.522;18.550;2024-02-26T07:06:49;12.50;;;11.20;;
16854;SDS011;8543;54.522;18.550;2024-02-26T07:09:14;11.50;;;10.40;;
16854;SDS011;8543;54.522;18.550;2024-02-26T07:11:40;11.10;;;10.00;;
16854;SDS011;8543;54.522;18.550;2024-02-26T07:14:11;11.60;;;10.50;;
16854;SDS011;8543;54.522;18.550;2024-02-26T07:16:37;11.70;;;10.40;;
16854;SDS011;8543;54.522;18.550;2024-02-26T07:19:03;10.80;;;9.80;;
16854;SDS011;8543;54.522;18.550;2024-02-26T07:21:28;11.40;;;10.30;;
16854;SDS011;8543;54.522;18.550;2024-02-26T07:23:54;11.70;;;10.50;;
16854;SDS011;8543;54.522;18.550;2024-02-26T07:26:19;11.10;;;10.10;;
16854;SDS011;8543;54.522;18.550;2024-02-26T07:28:45;11.30;;;10.30;;
16854;SDS011;8543;54.522;18.550;2024-02-26T07:31:11;11.60;;;10.50;;
16854;SDS011;8543;54.522;18.550;2024-02-26T07:33:36;12.40;;;11.20;;
16854;SDS011;8543;54.522;18.550;2024-02-26T07:36:02;21.50;;;13.50;;
16854;SDS011;8543;54.522;18.550;2024-02-26T07:38:27;15.90;;;12.00;;
16854;SDS011;8543;54.522;18.550;2024-02-26T07:40:53;25.20;;;13.90;;
16854;SDS011;8543;54.522;18.550;2024-02-26T07:43:18;21.30;;;12.70;;
16854;SDS011;8543;54.522;18.550;2024-02-26T07:45:44;19.30;;;13.30;;
16854;SDS011;8543;54.522;18.550;2024-02-26T07:48:09;17.70;;;12.70;;
16854;SDS011;8543;54.522;18.550;2024-02-26T07:50:34;14.30;;;12.80;;
16854;SDS011;8543;54.522;18.550;2024-02-26T07:53:00;25.90;;;14.90;;
16854;SDS011;8543;54.522;18.550;2024-02-26T07:55:25;16.90;;;13.20;;
16854;SDS011;8543;54.522;18.550;2024-02-26T07:57:50;15.50;;;13.90;;
16854;SDS011;8543;54.522;18.550;2024-02-26T08:00:16;50.50;;;19.80;;
16854;SDS011;8543;54.522;18.550;2024-02-26T08:02:42;40.20;;;17.20;;
16854;SDS011;8543;54.522;18.550;2024-02-26T08:05:09;37.60;;;16.60;;
16854;SDS011;8543;54.522;18.550;2024-02-26T08:07:34;30.20;;;15.10;;
16854;SDS011;8543;54.522;18.550;2024-02-26T08:09:59;21.90;;;14.20;;
16854;SDS011;8543;54.522;18.550;2024-02-26T08:12:25;15.80;;;14.20;;
16854;SDS011;8543;54.522;18.550;2024-02-26T08:14:50;14.40;;;13.00;;
16854;SDS011;8543;54.522;18.550;2024-02-26T08:17:16;14.60;;;13.30;;
16854;SDS011;8543;54.522;18.550;2024-02-26T08:19:41;15.00;;;13.50;;
16854;SDS011;8543;54.522;18.550;2024-02-26T08:22:07;16.40;;;14.70;;
16854;SDS011;8543;54.522;18.550;2024-02-26T08:24:32;29.60;;;16.80;;
16854;SDS011;8543;54.522;18.550;2024-02-26T08:26:58;22.80;;;15.60;;
16854;SDS011;8543;54.522;18.550;2024-02-26T08:29:23;23.60;;;16.90;;
16854;SDS011;8543;54.522;18.550;2024-02-26T08:31:48;49.30;;;19.10;;
16854;SDS011;8543;54.522;18.550;2024-02-26T08:34:14;27.80;;;17.40;;
16854;SDS011;8543;54.522;18.550;2024-02-26T08:36:39;20.60;;;16.40;;
16854;SDS011;8543;54.522;18.550;2024-02-26T08:39:05;17.80;;;16.00;;
16854;SDS011;8543;54.522;18.550;2024-02-26T08:41:30;18.80;;;16.40;;
16854;SDS011;8543;54.522;18.550;2024-02-26T08:43:56;19.50;;;17.00;;
16854;SDS011;8543;54.522;18.550;2024-02-26T08:46:23;18.60;;;16.80;;
16854;SDS011;8543;54.522;18.550;2024-02-26T08:48:48;20.30;;;17.00;;
16854;SDS011;8543;54.522;18.550;2024-02-26T08:51:14;16.40;;;14.70;;
16854;SDS011;8543;54.522;18.550;2024-02-26T08:53:40;16.20;;;14.00;;
16854;SDS011;8543;54.522;18.550;2024-02-26T08:56:05;15.00;;;13.40;;
16854;SDS011;8543;54.522;18.550;2024-02-26T08:58:31;13.90;;;11.80;;
16854;SDS011;8543;54.522;18.550;2024-02-26T09:00:57;13.30;;;10.90;;
16854;SDS011;8543;54.522;18.550;2024-02-26T09:03:22;12.60;;;11.00;;
16854;SDS011;8543;54.522;18.550;2024-02-26T09:05:48;13.60;;;11.10;;
16854;SDS011;8543;54.522;18.550;2024-02-26T09:08:14;12.00;;;10.70;;
16854;SDS011;8543;54.522;18.550;2024-02-26T09:10:39;12.90;;;11.00;;
16854;SDS011;8543;54.522;18.550;2024-02-26T09:13:05;13.40;;;11.00;;
16854;SDS011;8543;54.522;18.550;2024-02-26T09:15:31;20.10;;;15.90;;
16854;SDS011;8543;54.522;18.550;2024-02-26T09:17:56;13.10;;;11.10;;
16854;SDS011;8543;54.522;18.550;2024-02-26T09:20:22;12.80;;;10.80;;
16854;SDS011;8543;54.522;18.550;2024-02-26T09:22:48;13.60;;;11.20;;
16854;SDS011;8543;54.522;18.550;2024-02-26T09:25:14;13.10;;;10.80;;
16854;SDS011;8543;54.522;18.550;2024-02-26T09:27:46;15.10;;;11.40;;
16854;SDS011;8543;54.522;18.550;2024-02-26T09:30:12;13.70;;;11.00;;
16854;SDS011;8543;54.522;18.550;2024-02-26T09:32:38;12.50;;;10.80;;
16854;SDS011;8543;54.522;18.550;2024-02-26T09:35:04;14.80;;;11.10;;
16854;SDS011;8543;54.522;18.550;2024-02-26T09:37:30;12.60;;;10.80;;
16854;SDS011;8543;54.522;18.550;2024-02-26T09:39:55;13.50;;;10.40;;
16854;SDS011;8543;54.522;18.550;2024-02-26T09:42:21;13.80;;;10.60;;
16854;SDS011;8543;54.522;18.550;2024-02-26T09:44:49;12.70;;;9.80;;
16854;SDS011;8543;54.522;18.550;2024-02-26T09:47:17;13.50;;;11.00;;
16854;SDS011;8543;54.522;18.550;2024-02-26T09:49:45;12.80;;;10.90;;
16854;SDS011;8543;54.522;18.550;2024-02-26T09:52:11;13.90;;;10.20;;
16854;SDS011;8543;54.522;18.550;2024-02-26T09:54:37;13.50;;;10.10;;
16854;SDS011;8543;54.522;18.550;2024-02-26T09:57:03;13.90;;;11.00;;
16854;SDS011;8543;54.522;18.550;2024-02-26T09:59:36;12.60;;;10.60;;
16854;SDS011;8543;54.522;18.550;2024-02-26T10:02:06;14.90;;;10.40;;
16854;SDS011;8543;54.522;18.550;2024-02-26T10:04:35;13.30;;;10.30;;
16854;SDS011;8543;54.522;18.550;2024-02-26T10:07:04;14.10;;;10.90;;
16854;SDS011;8543;54.522;18.550;2024-02-26T10:09:33;13.80;;;10.60;;
16854;SDS011;8543;54.522;18.550;2024-02-26T10:11:58;13.70;;;10.60;;
16854;SDS011;8543;54.522;18.550;2024-02-26T10:14:24;12.90;;;10.40;;
16854;SDS011;8543;54.522;18.550;2024-02-26T10:16:50;13.70;;;10.20;;
16854;SDS011;8543;54.522;18.550;2024-02-26T10:19:25;14.80;;;11.20;;
16854;SDS011;8543;54.522;18.550;2024-02-26T10:21:55;15.90;;;11.60;;
16854;SDS011;8543;54.522;18.550;2024-02-26T10:24:22;16.20;;;11.10;;
16854;SDS011;8543;54.522;18.550;2024-02-26T10:26:48;17.70;;;13.30;;
16854;SDS011;8543;54.522;18.550;2024-02-26T10:29:14;15.70;;;10.50;;
16854;SDS011;8543;54.522;18.550;2024-02-26T10:31:41;19.20;;;13.20;;
16854;SDS011;8543;54.522;18.550;2024-02-26T10:34:07;20.80;;;16.00;;
16854;SDS011;8543;54.522;18.550;2024-02-26T10:36:33;16.80;;;12.60;;
16854;SDS011;8543;54.522;18.550;2024-02-26T10:39:01;23.70;;;17.90;;
16854;SDS011;8543;54.522;18.550;2024-02-26T10:41:27;23.40;;;16.70;;
16854;SDS011;8543;54.522;18.550;2024-02-26T10:43:52;22.60;;;16.80;;
16854;SDS011;8543;54.522;18.550;2024-02-26T10:46:19;21.80;;;15.40;;
16854;SDS011;8543;54.522;18.550;2024-02-26T10:48:49;21.90;;;15.10;;
16854;SDS011;8543;54.522;18.550;2024-02-26T10:51:16;21.80;;;15.30;;
16854;SDS011;8543;54.522;18.550;2024-02-26T10:53:45;22.30;;;16.90;;
16854;SDS011;8543;54.522;18.550;2024-02-26T10:56:10;26.70;;;19.80;;
16854;SDS011;8543;54.522;18.550;2024-02-26T10:58:36;25.80;;;19.90;;
16854;SDS011;8543;54.522;18.550;2024-02-26T11:01:02;26.20;;;19.70;;
16854;SDS011;8543;54.522;18.550;2024-02-26T11:03:28;23.40;;;16.50;;
16854;SDS011;8543;54.522;18.550;2024-02-26T11:05:57;22.60;;;16.00;;
16854;SDS011;8543;54.522;18.550;2024-02-26T11:08:23;19.50;;;13.50;;
16854;SDS011;8543;54.522;18.550;2024-02-26T11:10:50;19.20;;;14.40;;
16854;SDS011;8543;54.522;18.550;2024-02-26T11:13:19;17.70;;;13.20;;
16854;SDS011;8543;54.522;18.550;2024-02-26T11:15:48;20.90;;;15.10;;
16854;SDS011;8543;54.522;18.550;2024-02-26T11:18:17;18.00;;;13.90;;
16854;SDS011;8543;54.522;18.550;2024-02-26T11:20:44;18.70;;;14.00;;
16854;SDS011;8543;54.522;18.550;2024-02-26T11:23:11;17.90;;;14.20;;
16854;SDS011;8543;54.522;18.550;2024-02-26T11:25:36;24.10;;;15.80;;
16854;SDS011;8543;54.522;18.550;2024-02-26T11:28:06;22.50;;;16.00;;
16854;SDS011;8543;54.522;18.550;2024-02-26T11:30:35;18.10;;;14.40;;
16854;SDS011;8543;54.522;18.550;2024-02-26T11:33:04;22.30;;;15.50;;
16854;SDS011;8543;54.522;18.550;2024-02-26T11:35:31;21.00;;;15.20;;
16854;SDS011;8543;54.522;18.550;2024-02-26T11:37:57;20.70;;;14.50;;
16854;SDS011;8543;54.522;18.550;2024-02-26T11:40:25;22.90;;;15.80;;
16854;SDS011;8543;54.522;18.550;2024-02-26T11:42:51;22.40;;;16.90;;
16854;SDS011;8543;54.522;18.550;2024-02-26T11:46:01;23.90;;;17.20;;
16854;SDS011;8543;54.522;18.550;2024-02-26T11:48:15;21.00;;;15.70;;
16854;SDS011;8543;54.522;18.550;2024-02-26T11:50:45;20.10;;;14.50;;
16854;SDS011;8543;54.522;18.550;2024-02-26T11:53:30;21.80;;;15.60;;
16854;SDS011;8543;54.522;18.550;2024-02-26T11:58:41;22.30;;;15.30;;
16854;SDS011;8543;54.522;18.550;2024-02-26T12:01:52;19.90;;;14.20;;
16854;SDS011;8543;54.522;18.550;2024-02-26T12:04:01;18.40;;;14.20;;
16854;SDS011;8543;54.522;18.550;2024-02-26T12:06:27;19.90;;;14.10;;
16854;SDS011;8543;54.522;18.550;2024-02-26T12:08:54;21.10;;;15.10;;
16854;SDS011;8543;54.522;18.550;2024-02-26T12:11:21;17.80;;;11.90;;
16854;SDS011;8543;54.522;18.550;2024-02-26T12:13:49;17.30;;;12.20;;
16854;SDS011;8543;54.522;18.550;2024-02-26T12:16:34;21.20;;;12.60;;
16854;SDS011;8543;54.522;18.550;2024-02-26T12:19:10;19.60;;;13.10;;
16854;SDS011;8543;54.522;18.550;2024-02-26T12:21:36;21.90;;;15.00;;
16854;SDS011;8543;54.522;18.550;2024-02-26T12:24:14;19.40;;;13.50;;
16854;SDS011;8543;54.522;18.550;2024-02-26T12:26:43;19.40;;;13.60;;
16854;SDS011;8543;54.522;18.550;2024-02-26T12:29:09;18.20;;;12.90;;
16854;SDS011;8543;54.522;18.550;2024-02-26T12:31:36;16.50;;;12.20;;
16854;SDS011;8543;54.522;18.550;2024-02-26T12:34:02;18.40;;;11.90;;
16854;SDS011;8543;54.522;18.550;2024-02-26T12:36:28;16.70;;;11.50;;
16854;SDS011;8543;54.522;18.550;2024-02-26T12:38:53;16.90;;;12.30;;
16854;SDS011;8543;54.522;18.550;2024-02-26T12:41:19;18.60;;;13.90;;
16854;SDS011;8543;54.522;18.550;2024-02-26T12:43:46;18.50;;;13.20;;
16854;SDS011;8543;54.522;18.550;2024-02-26T12:46:11;21.30;;;13.50;;
16854;SDS011;8543;54.522;18.550;2024-02-26T12:48:38;16.50;;;12.10;;
16854;SDS011;8543;54.522;18.550;2024-02-26T12:51:04;19.00;;;13.50;;
16854;SDS011;8543;54.522;18.550;2024-02-26T12:53:31;21.10;;;14.10;;
16854;SDS011;8543;54.522;18.550;2024-02-26T12:55:57;21.70;;;14.90;;
16854;SDS011;8543;54.522;18.550;2024-02-26T12:58:23;21.20;;;15.10;;
16854;SDS011;8543;54.522;18.550;2024-02-26T13:00:53;20.80;;;15.20;;
16854;SDS011;8543;54.522;18.550;2024-02-26T13:03:19;21.70;;;14.40;;
16854;SDS011;8543;54.522;18.550;2024-02-26T13:05:45;19.60;;;13.60;;
16854;SDS011;8543;54.522;18.550;2024-02-26T13:08:17;24.20;;;15.00;;
16854;SDS011;8543;54.522;18.550;2024-02-26T13:10:43;22.10;;;14.50;;
16854;SDS011;8543;54.522;18.550;2024-02-26T13:13:08;19.00;;;14.70;;
16854;SDS011;8543;54.522;18.550;2024-02-26T13:15:34;19.20;;;14.40;;
16854;SDS011;8543;54.522;18.550;2024-02-26T13:17:59;22.10;;;15.90;;
16854;SDS011;8543;54.522;18.550;2024-02-26T13:20:34;21.20;;;14.60;;
16854;SDS011;8543;54.522;18.550;2024-02-26T13:23:04;18.40;;;13.30;;
16854;SDS011;8543;54.522;18.550;2024-02-26T13:25:30;18.60;;;12.30;;
16854;SDS011;8543;54.522;18.550;2024-02-26T13:28:30;19.60;;;13.40;;
16854;SDS011;8543;54.522;18.550;2024-02-26T13:30:55;20.60;;;14.60;;
16854;SDS011;8543;54.522;18.550;2024-02-26T13:33:22;21.30;;;14.10;;
16854;SDS011;8543;54.522;18.550;2024-02-26T13:35:49;23.00;;;14.20;;
16854;SDS011;8543;54.522;18.550;2024-02-26T13:38:14;21.40;;;13.30;;
16854;SDS011;8543;54.522;18.550;2024-02-26T13:40:40;20.90;;;14.60;;
16854;SDS011;8543;54.522;18.550;2024-02-26T13:43:05;20.20;;;13.80;;
16854;SDS011;8543;54.522;18.550;2024-02-26T13:45:34;23.60;;;14.50;;
16854;SDS011;8543;54.522;18.550;2024-02-26T13:48:02;24.50;;;15.40;;
16854;SDS011;8543;54.522;18.550;2024-02-26T13:50:28;22.20;;;14.40;;
16854;SDS011;8543;54.522;18.550;2024-02-26T13:52:54;23.40;;;13.80;;
16854;SDS011;8543;54.522;18.550;2024-02-26T13:55:21;19.60;;;13.30;;
16854;SDS011;8543;54.522;18.550;2024-02-26T13:57:49;19.30;;;13.40;;
16854;SDS011;8543;54.522;18.550;2024-02-26T14:00:17;17.50;;;12.70;;
16854;SDS011;8543;54.522;18.550;2024-02-26T14:02:43;21.50;;;12.40;;
16854;SDS011;8543;54.522;18.550;2024-02-26T14:05:08;17.50;;;11.70;;
16854;SDS011;8543;54.522;18.550;2024-02-26T14:07:34;18.70;;;10.90;;
16854;SDS011;8543;54.522;18.550;2024-02-26T14:09:59;15.70;;;11.10;;
16854;SDS011;8543;54.522;18.550;2024-02-26T14:12:24;17.20;;;11.20;;
16854;SDS011;8543;54.522;18.550;2024-02-26T14:14:50;16.40;;;11.50;;
16854;SDS011;8543;54.522;18.550;2024-02-26T14:17:18;16.80;;;11.20;;
16854;SDS011;8543;54.522;18.550;2024-02-26T14:19:43;13.10;;;10.30;;
16854;SDS011;8543;54.522;18.550;2024-02-26T14:22:12;14.90;;;10.40;;
16854;SDS011;8543;54.522;18.550;2024-02-26T14:24:38;16.00;;;10.60;;
16854;SDS011;8543;54.522;18.550;2024-02-26T14:27:04;14.10;;;10.50;;